sensor_id;sensor_type;location;lat;lon;timestamp;temperature;humidity
22698;DHT22;11516;51.612;7.510;2022-07-06T00:02:07;16.10;86.80
22698;DHT22;11516;51.612;7.510;2022-07-06T00:04:33;16.10;86.60
22698;DHT22;11516;51.612;7.510;2022-07-06T00:06:58;16.10;86.70
22698;DHT22;11516;51.612;7.510;2022-07-06T00:09:24;16.00;87.20
22698;DHT22;11516;51.612;7.510;2022-07-06T00:11:50;15.90;87.70
22698;DHT22;11516;51.612;7.510;2022-07-06T00:14:15;15.90;87.10
22698;DHT22;11516;51.612;7.510;2022-07-06T00:16:41;15.90;87.00
22698;DHT22;11516;51.612;7.510;2022-07-06T00:19:06;15.80;86.60
22698;DHT22;11516;51.612;7.510;2022-07-06T00:21:32;15.60;87.20
22698;DHT22;11516;51.612;7.510;2022-07-06T00:23:57;15.40;87.80
22698;DHT22;11516;51.612;7.510;2022-07-06T00:26:23;15.40;88.00
22698;DHT22;11516;51.612;7.510;2022-07-06T00:28:48;15.30;88.30
22698;DHT22;11516;51.612;7.510;2022-07-06T00:31:14;15.20;88.00
22698;DHT22;11516;51.612;7.510;2022-07-06T00:33:39;15.30;88.10
22698;DHT22;11516;51.612;7.510;2022-07-06T00:36:05;15.20;88.20
22698;DHT22;11516;51.612;7.510;2022-07-06T00:38:31;15.20;88.00
22698;DHT22;11516;51.612;7.510;2022-07-06T00:40:56;15.10;88.00
22698;DHT22;11516;51.612;7.510;2022-07-06T00:43:22;15.10;88.60
22698;DHT22;11516;51.612;7.510;2022-07-06T00:45:47;15.10;88.00
22698;DHT22;11516;51.612;7.510;2022-07-06T00:48:13;15.10;87.80
22698;DHT22;11516;51.612;7.510;2022-07-06T00:50:39;15.10;87.80
22698;DHT22;11516;51.612;7.510;2022-07-06T00:53:06;15.10;88.50
22698;DHT22;11516;51.612;7.510;2022-07-06T00:55:35;15.10;88.00
22698;DHT22;11516;51.612;7.510;2022-07-06T00:58:02;15.20;87.80
22698;DHT22;11516;51.612;7.510;2022-07-06T01:00:29;15.20;87.20
22698;DHT22;11516;51.612;7.510;2022-07-06T01:02:55;15.00;87.70
22698;DHT22;11516;51.612;7.510;2022-07-06T01:05:21;15.10;87.80
22698;DHT22;11516;51.612;7.510;2022-07-06T01:07:48;15.20;88.20
22698;DHT22;11516;51.612;7.510;2022-07-06T01:10:16;15.20;87.60
22698;DHT22;11516;51.612;7.510;2022-07-06T01:12:43;15.10;87.30
22698;DHT22;11516;51.612;7.510;2022-07-06T01:15:12;15.10;87.90
22698;DHT22;11516;51.612;7.510;2022-07-06T01:17:42;15.00;88.00
22698;DHT22;11516;51.612;7.510;2022-07-06T01:20:15;14.90;88.80
22698;DHT22;11516;51.612;7.510;2022-07-06T01:22:41;14.70;89.20
22698;DHT22;11516;51.612;7.510;2022-07-06T01:25:07;14.60;89.70
22698;DHT22;11516;51.612;7.510;2022-07-06T01:27:34;14.60;89.40
22698;DHT22;11516;51.612;7.510;2022-07-06T01:30:07;14.60;90.20
22698;DHT22;11516;51.612;7.510;2022-07-06T01:32:34;14.70;89.60
22698;DHT22;11516;51.612;7.510;2022-07-06T01:35:00;14.90;88.50
22698;DHT22;11516;51.612;7.510;2022-07-06T01:37:26;14.70;88.80
22698;DHT22;11516;51.612;7.510;2022-07-06T01:39:51;14.70;89.10
22698;DHT22;11516;51.612;7.510;2022-07-06T01:42:17;14.70;89.00
22698;DHT22;11516;51.612;7.510;2022-07-06T01:44:43;14.60;89.60
22698;DHT22;11516;51.612;7.510;2022-07-06T01:47:10;14.50;90.00
22698;DHT22;11516;51.612;7.510;2022-07-06T01:49:36;14.40;90.20
22698;DHT22;11516;51.612;7.510;2022-07-06T01:52:01;14.30;90.60
22698;DHT22;11516;51.612;7.510;2022-07-06T01:54:27;14.50;90.20
22698;DHT22;11516;51.612;7.510;2022-07-06T01:56:53;14.50;90.10
22698;DHT22;11516;51.612;7.510;2022-07-06T01:59:18;14.50;90.00
22698;DHT22;11516;51.612;7.510;2022-07-06T02:01:44;14.50;90.00
22698;DHT22;11516;51.612;7.510;2022-07-06T02:04:09;14.40;90.20
22698;DHT22;11516;51.612;7.510;2022-07-06T02:06:35;14.50;90.10
22698;DHT22;11516;51.612;7.510;2022-07-06T02:09:00;14.40;90.40
22698;DHT22;11516;51.612;7.510;2022-07-06T02:11:26;14.40;90.10
22698;DHT22;11516;51.612;7.510;2022-07-06T02:13:53;14.30;90.30
22698;DHT22;11516;51.612;7.510;2022-07-06T02:16:18;14.30;90.40
22698;DHT22;11516;51.612;7.510;2022-07-06T02:18:44;14.20;90.60
22698;DHT22;11516;51.612;7.510;2022-07-06T02:21:10;14.20;90.60
22698;DHT22;11516;51.612;7.510;2022-07-06T02:23:35;14.20;90.70
22698;DHT22;11516;51.612;7.510;2022-07-06T02:26:01;14.20;90.70
22698;DHT22;11516;51.612;7.510;2022-07-06T02:28:26;14.10;90.90
22698;DHT22;11516;51.612;7.510;2022-07-06T02:30:52;14.10;90.90
22698;DHT22;11516;51.612;7.510;2022-07-06T02:33:18;14.00;90.90
22698;DHT22;11516;51.612;7.510;2022-07-06T02:35:44;14.00;91.00
22698;DHT22;11516;51.612;7.510;2022-07-06T02:38:10;13.90;91.10
22698;DHT22;11516;51.612;7.510;2022-07-06T02:40:36;13.90;91.20
22698;DHT22;11516;51.612;7.510;2022-07-06T02:43:02;13.80;91.40
22698;DHT22;11516;51.612;7.510;2022-07-06T02:45:27;13.80;91.70
22698;DHT22;11516;51.612;7.510;2022-07-06T02:47:53;13.80;91.60
22698;DHT22;11516;51.612;7.510;2022-07-06T02:50:20;13.70;91.60
22698;DHT22;11516;51.612;7.510;2022-07-06T02:52:46;13.60;91.60
22698;DHT22;11516;51.612;7.510;2022-07-06T02:55:11;13.70;91.90
22698;DHT22;11516;51.612;7.510;2022-07-06T02:57:37;13.60;91.70
22698;DHT22;11516;51.612;7.510;2022-07-06T03:00:04;13.60;92.10
22698;DHT22;11516;51.612;7.510;2022-07-06T03:02:30;13.60;92.30
22698;DHT22;11516;51.612;7.510;2022-07-06T03:04:55;13.60;92.10
22698;DHT22;11516;51.612;7.510;2022-07-06T03:07:22;13.60;92.20
22698;DHT22;11516;51.612;7.510;2022-07-06T03:09:47;13.60;92.20
22698;DHT22;11516;51.612;7.510;2022-07-06T03:12:13;13.60;92.00
22698;DHT22;11516;51.612;7.510;2022-07-06T03:14:38;13.60;91.90
22698;DHT22;11516;51.612;7.510;2022-07-06T03:17:04;13.60;92.00
22698;DHT22;11516;51.612;7.510;2022-07-06T03:19:30;13.40;92.40
22698;DHT22;11516;51.612;7.510;2022-07-06T03:21:55;13.30;92.20
22698;DHT22;11516;51.612;7.510;2022-07-06T03:24:21;13.40;92.20
22698;DHT22;11516;51.612;7.510;2022-07-06T03:26:46;13.40;92.30
22698;DHT22;11516;51.612;7.510;2022-07-06T03:29:12;13.40;92.10
22698;DHT22;11516;51.612;7.510;2022-07-06T03:31:37;13.40;92.20
22698;DHT22;11516;51.612;7.510;2022-07-06T03:34:03;13.40;92.10
22698;DHT22;11516;51.612;7.510;2022-07-06T03:36:28;13.40;92.10
22698;DHT22;11516;51.612;7.510;2022-07-06T03:38:54;13.40;92.20
22698;DHT22;11516;51.612;7.510;2022-07-06T03:41:19;13.50;92.20
22698;DHT22;11516;51.612;7.510;2022-07-06T03:43:45;13.50;92.20
22698;DHT22;11516;51.612;7.510;2022-07-06T03:46:10;13.50;91.90
22698;DHT22;11516;51.612;7.510;2022-07-06T03:48:36;13.50;91.80
22698;DHT22;11516;51.612;7.510;2022-07-06T03:51:01;13.40;92.10
22698;DHT22;11516;51.612;7.510;2022-07-06T03:53:27;13.40;92.40
22698;DHT22;11516;51.612;7.510;2022-07-06T03:55:52;13.30;92.60
22698;DHT22;11516;51.612;7.510;2022-07-06T03:58:37;13.50;92.60
22698;DHT22;11516;51.612;7.510;2022-07-06T04:01:02;13.40;92.70
22698;DHT22;11516;51.612;7.510;2022-07-06T04:03:28;13.50;92.60
22698;DHT22;11516;51.612;7.510;2022-07-06T04:05:53;13.50;92.50
22698;DHT22;11516;51.612;7.510;2022-07-06T04:08:19;13.60;92.30
22698;DHT22;11516;51.612;7.510;2022-07-06T04:10:45;13.60;92.20
22698;DHT22;11516;51.612;7.510;2022-07-06T04:13:11;13.60;92.10
22698;DHT22;11516;51.612;7.510;2022-07-06T04:15:37;13.70;92.10
22698;DHT22;11516;51.612;7.510;2022-07-06T04:18:03;13.70;92.10
22698;DHT22;11516;51.612;7.510;2022-07-06T04:20:29;13.80;91.90
22698;DHT22;11516;51.612;7.510;2022-07-06T04:22:54;13.90;91.90
22698;DHT22;11516;51.612;7.510;2022-07-06T04:25:20;14.00;91.70
22698;DHT22;11516;51.612;7.510;2022-07-06T04:27:45;13.90;91.80
22698;DHT22;11516;51.612;7.510;2022-07-06T04:30:11;13.90;91.80
22698;DHT22;11516;51.612;7.510;2022-07-06T04:32:37;13.90;91.70
22698;DHT22;11516;51.612;7.510;2022-07-06T04:35:04;13.80;91.80
22698;DHT22;11516;51.612;7.510;2022-07-06T04:37:30;13.80;92.10
22698;DHT22;11516;51.612;7.510;2022-07-06T04:39:55;13.80;92.30
22698;DHT22;11516;51.612;7.510;2022-07-06T04:42:21;13.90;92.00
22698;DHT22;11516;51.612;7.510;2022-07-06T04:44:47;14.00;92.00
22698;DHT22;11516;51.612;7.510;2022-07-06T04:47:13;14.00;92.20
22698;DHT22;11516;51.612;7.510;2022-07-06T04:49:39;14.10;92.00
22698;DHT22;11516;51.612;7.510;2022-07-06T04:52:05;14.20;92.00
22698;DHT22;11516;51.612;7.510;2022-07-06T04:54:31;14.20;91.80
22698;DHT22;11516;51.612;7.510;2022-07-06T04:56:56;14.30;91.20
22698;DHT22;11516;51.612;7.510;2022-07-06T04:59:22;14.20;91.90
22698;DHT22;11516;51.612;7.510;2022-07-06T05:01:48;14.30;91.60
22698;DHT22;11516;51.612;7.510;2022-07-06T05:04:13;14.40;91.40
22698;DHT22;11516;51.612;7.510;2022-07-06T05:06:39;14.30;91.50
22698;DHT22;11516;51.612;7.510;2022-07-06T05:09:05;14.30;91.60
22698;DHT22;11516;51.612;7.510;2022-07-06T05:11:31;14.30;91.70
22698;DHT22;11516;51.612;7.510;2022-07-06T05:13:56;14.30;91.70
22698;DHT22;11516;51.612;7.510;2022-07-06T05:16:22;14.40;91.80
22698;DHT22;11516;51.612;7.510;2022-07-06T05:18:47;14.50;91.90
22698;DHT22;11516;51.612;7.510;2022-07-06T05:21:13;14.60;91.50
22698;DHT22;11516;51.612;7.510;2022-07-06T05:23:39;14.60;91.60
22698;DHT22;11516;51.612;7.510;2022-07-06T05:26:05;14.60;91.60
22698;DHT22;11516;51.612;7.510;2022-07-06T05:28:30;14.60;91.20
22698;DHT22;11516;51.612;7.510;2022-07-06T05:30:56;14.60;91.50
22698;DHT22;11516;51.612;7.510;2022-07-06T05:33:22;14.70;91.40
22698;DHT22;11516;51.612;7.510;2022-07-06T05:35:47;14.70;91.30
22698;DHT22;11516;51.612;7.510;2022-07-06T05:38:13;14.70;91.30
22698;DHT22;11516;51.612;7.510;2022-07-06T05:40:38;14.80;91.30
22698;DHT22;11516;51.612;7.510;2022-07-06T05:43:04;14.90;91.30
22698;DHT22;11516;51.612;7.510;2022-07-06T05:45:29;15.00;90.80
22698;DHT22;11516;51.612;7.510;2022-07-06T05:47:55;15.00;90.80
22698;DHT22;11516;51.612;7.510;2022-07-06T05:50:39;15.10;90.80
22698;DHT22;11516;51.612;7.510;2022-07-06T05:53:06;15.20;90.70
22698;DHT22;11516;51.612;7.510;2022-07-06T05:55:32;15.30;90.60
22698;DHT22;11516;51.612;7.510;2022-07-06T05:57:58;15.50;90.20
22698;DHT22;11516;51.612;7.510;2022-07-06T06:00:25;15.50;90.30
22698;DHT22;11516;51.612;7.510;2022-07-06T06:02:51;15.70;90.00
22698;DHT22;11516;51.612;7.510;2022-07-06T06:05:18;16.00;88.60
22698;DHT22;11516;51.612;7.510;2022-07-06T06:07:44;15.90;89.40
22698;DHT22;11516;51.612;7.510;2022-07-06T06:10:13;15.90;89.30
22698;DHT22;11516;51.612;7.510;2022-07-06T06:12:40;15.90;88.90
22698;DHT22;11516;51.612;7.510;2022-07-06T06:15:06;15.80;88.80
22698;DHT22;11516;51.612;7.510;2022-07-06T06:17:32;15.90;88.60
22698;DHT22;11516;51.612;7.510;2022-07-06T06:19:58;15.90;88.30
22698;DHT22;11516;51.612;7.510;2022-07-06T06:22:24;15.80;88.40
22698;DHT22;11516;51.612;7.510;2022-07-06T06:24:50;15.90;88.80
22698;DHT22;11516;51.612;7.510;2022-07-06T06:27:16;16.00;88.30
22698;DHT22;11516;51.612;7.510;2022-07-06T06:29:42;16.10;88.80
22698;DHT22;11516;51.612;7.510;2022-07-06T06:32:12;16.20;88.50
22698;DHT22;11516;51.612;7.510;2022-07-06T06:34:39;16.50;88.10
22698;DHT22;11516;51.612;7.510;2022-07-06T09:50:00;18.70;67.50
22698;DHT22;11516;51.612;7.510;2022-07-06T09:52:26;19.40;65.60
22698;DHT22;11516;51.612;7.510;2022-07-06T09:54:51;19.20;64.90
22698;DHT22;11516;51.612;7.510;2022-07-06T09:57:17;19.10;64.40
22698;DHT22;11516;51.612;7.510;2022-07-06T09:59:50;19.20;63.50
22698;DHT22;11516;51.612;7.510;2022-07-06T10:02:15;19.30;64.60
22698;DHT22;11516;51.612;7.510;2022-07-06T10:04:44;19.20;63.30
22698;DHT22;11516;51.612;7.510;2022-07-06T10:07:11;19.20;62.90
22698;DHT22;11516;51.612;7.510;2022-07-06T10:09:37;19.20;62.80
22698;DHT22;11516;51.612;7.510;2022-07-06T10:12:03;19.20;63.20
22698;DHT22;11516;51.612;7.510;2022-07-06T10:14:33;19.40;62.30
22698;DHT22;11516;51.612;7.510;2022-07-06T10:17:00;19.70;59.90
22698;DHT22;11516;51.612;7.510;2022-07-06T10:19:28;19.80;60.60
22698;DHT22;11516;51.612;7.510;2022-07-06T10:21:56;20.00;60.50
22698;DHT22;11516;51.612;7.510;2022-07-06T10:24:24;19.90;60.70
22698;DHT22;11516;51.612;7.510;2022-07-06T10:26:50;20.10;60.90
22698;DHT22;11516;51.612;7.510;2022-07-06T10:29:15;20.10;60.00
22698;DHT22;11516;51.612;7.510;2022-07-06T10:31:44;20.10;60.80
22698;DHT22;11516;51.612;7.510;2022-07-06T10:34:12;20.20;59.50
22698;DHT22;11516;51.612;7.510;2022-07-06T10:36:39;20.50;58.90
22698;DHT22;11516;51.612;7.510;2022-07-06T10:39:06;20.70;57.60
22698;DHT22;11516;51.612;7.510;2022-07-06T10:41:50;21.00;56.80
22698;DHT22;11516;51.612;7.510;2022-07-06T10:44:28;21.00;56.00
22698;DHT22;11516;51.612;7.510;2022-07-06T10:46:58;20.80;55.90
22698;DHT22;11516;51.612;7.510;2022-07-06T10:49:25;20.60;56.60
22698;DHT22;11516;51.612;7.510;2022-07-06T10:51:51;20.80;57.00
22698;DHT22;11516;51.612;7.510;2022-07-06T10:54:19;20.70;56.90
22698;DHT22;11516;51.612;7.510;2022-07-06T10:56:46;20.70;56.30
22698;DHT22;11516;51.612;7.510;2022-07-06T10:59:16;20.70;57.30
22698;DHT22;11516;51.612;7.510;2022-07-06T11:02:12;20.80;57.40
22698;DHT22;11516;51.612;7.510;2022-07-06T11:04:45;20.30;57.80
22698;DHT22;11516;51.612;7.510;2022-07-06T11:07:15;20.30;58.40
22698;DHT22;11516;51.612;7.510;2022-07-06T11:09:41;20.40;59.30
22698;DHT22;11516;51.612;7.510;2022-07-06T11:12:22;20.50;57.10
22698;DHT22;11516;51.612;7.510;2022-07-06T11:14:49;20.40;57.20
22698;DHT22;11516;51.612;7.510;2022-07-06T11:17:15;20.60;57.40
22698;DHT22;11516;51.612;7.510;2022-07-06T11:20:07;20.90;57.00
22698;DHT22;11516;51.612;7.510;2022-07-06T11:22:36;20.90;56.90
22698;DHT22;11516;51.612;7.510;2022-07-06T11:25:02;20.70;57.50
22698;DHT22;11516;51.612;7.510;2022-07-06T11:27:28;20.80;57.10
22698;DHT22;11516;51.612;7.510;2022-07-06T11:29:54;20.60;57.50
22698;DHT22;11516;51.612;7.510;2022-07-06T11:32:26;20.40;58.30
22698;DHT22;11516;51.612;7.510;2022-07-06T11:34:52;20.60;58.60
22698;DHT22;11516;51.612;7.510;2022-07-06T11:37:18;20.50;57.60
22698;DHT22;11516;51.612;7.510;2022-07-06T11:39:45;20.30;59.10
22698;DHT22;11516;51.612;7.510;2022-07-06T11:42:15;20.60;58.80
22698;DHT22;11516;51.612;7.510;2022-07-06T11:44:45;20.50;58.20
22698;DHT22;11516;51.612;7.510;2022-07-06T11:47:11;20.60;58.30
22698;DHT22;11516;51.612;7.510;2022-07-06T11:49:39;21.50;56.70
22698;DHT22;11516;51.612;7.510;2022-07-06T11:52:09;22.00;55.30
22698;DHT22;11516;51.612;7.510;2022-07-06T11:54:36;22.70;53.80
22698;DHT22;11516;51.612;7.510;2022-07-06T11:57:02;22.70;52.10
22698;DHT22;11516;51.612;7.510;2022-07-06T11:59:31;22.30;54.00
22698;DHT22;11516;51.612;7.510;2022-07-06T12:02:05;22.30;53.20
22698;DHT22;11516;51.612;7.510;2022-07-06T12:04:33;22.40;53.20
22698;DHT22;11516;51.612;7.510;2022-07-06T12:07:05;22.20;54.40
22698;DHT22;11516;51.612;7.510;2022-07-06T12:09:34;22.00;53.40
22698;DHT22;11516;51.612;7.510;2022-07-06T12:12:00;21.60;54.30
22698;DHT22;11516;51.612;7.510;2022-07-06T12:14:33;21.30;55.90
22698;DHT22;11516;51.612;7.510;2022-07-06T12:17:13;21.20;55.50
22698;DHT22;11516;51.612;7.510;2022-07-06T12:19:40;20.70;54.70
22698;DHT22;11516;51.612;7.510;2022-07-06T12:22:07;20.50;56.30
22698;DHT22;11516;51.612;7.510;2022-07-06T12:24:34;20.50;56.50
22698;DHT22;11516;51.612;7.510;2022-07-06T12:27:17;20.90;55.80
22698;DHT22;11516;51.612;7.510;2022-07-06T12:29:44;21.80;54.30
22698;DHT22;11516;51.612;7.510;2022-07-06T12:32:18;22.00;52.40
22698;DHT22;11516;51.612;7.510;2022-07-06T12:34:44;22.30;51.80
22698;DHT22;11516;51.612;7.510;2022-07-06T12:37:10;22.50;49.80
22698;DHT22;11516;51.612;7.510;2022-07-06T12:39:47;22.40;49.90
22698;DHT22;11516;51.612;7.510;2022-07-06T12:42:14;22.60;50.10
22698;DHT22;11516;51.612;7.510;2022-07-06T12:44:45;22.60;51.00
22698;DHT22;11516;51.612;7.510;2022-07-06T12:47:11;22.00;51.50
22698;DHT22;11516;51.612;7.510;2022-07-06T12:49:38;21.70;52.60
22698;DHT22;11516;51.612;7.510;2022-07-06T12:54:40;21.50;54.00
22698;DHT22;11516;51.612;7.510;2022-07-06T12:57:06;21.80;53.50
22698;DHT22;11516;51.612;7.510;2022-07-06T12:59:36;22.00;53.30
22698;DHT22;11516;51.612;7.510;2022-07-06T13:02:04;22.50;52.80
22698;DHT22;11516;51.612;7.510;2022-07-06T13:04:31;22.80;50.00
22698;DHT22;11516;51.612;7.510;2022-07-06T13:06:58;22.20;50.70
22698;DHT22;11516;51.612;7.510;2022-07-06T13:09:24;22.00;51.60
22698;DHT22;11516;51.612;7.510;2022-07-06T13:11:50;21.40;52.60
22698;DHT22;11516;51.612;7.510;2022-07-06T13:14:17;21.50;52.70
22698;DHT22;11516;51.612;7.510;2022-07-06T13:16:44;21.60;53.40
22698;DHT22;11516;51.612;7.510;2022-07-06T13:19:10;22.00;53.10
22698;DHT22;11516;51.612;7.510;2022-07-06T13:21:36;22.20;52.90
22698;DHT22;11516;51.612;7.510;2022-07-06T13:24:02;21.70;52.80
22698;DHT22;11516;51.612;7.510;2022-07-06T13:26:28;21.80;52.90
22698;DHT22;11516;51.612;7.510;2022-07-06T13:28:54;21.50;53.10
22698;DHT22;11516;51.612;7.510;2022-07-06T13:31:20;21.40;54.00
22698;DHT22;11516;51.612;7.510;2022-07-06T13:33:45;21.70;53.80
22698;DHT22;11516;51.612;7.510;2022-07-06T13:36:11;22.20;52.70
22698;DHT22;11516;51.612;7.510;2022-07-06T13:38:36;22.20;52.40
22698;DHT22;11516;51.612;7.510;2022-07-06T13:41:02;22.40;52.20
22698;DHT22;11516;51.612;7.510;2022-07-06T13:43:27;22.70;52.10
22698;DHT22;11516;51.612;7.510;2022-07-06T13:46:04;22.70;52.40
22698;DHT22;11516;51.612;7.510;2022-07-06T13:48:31;23.10;51.70
22698;DHT22;11516;51.612;7.510;2022-07-06T13:50:57;23.40;48.30
22698;DHT22;11516;51.612;7.510;2022-07-06T13:53:23;23.10;47.90
22698;DHT22;11516;51.612;7.510;2022-07-06T13:55:48;22.90;47.00
22698;DHT22;11516;51.612;7.510;2022-07-06T13:58:14;22.90;47.90
22698;DHT22;11516;51.612;7.510;2022-07-06T14:00:40;22.70;48.10
22698;DHT22;11516;51.612;7.510;2022-07-06T14:03:05;22.50;50.10
22698;DHT22;11516;51.612;7.510;2022-07-06T14:05:31;22.30;50.20
22698;DHT22;11516;51.612;7.510;2022-07-06T14:07:57;21.70;51.80
22698;DHT22;11516;51.612;7.510;2022-07-06T14:10:23;21.80;52.30
22698;DHT22;11516;51.612;7.510;2022-07-06T14:12:48;21.80;52.00
22698;DHT22;11516;51.612;7.510;2022-07-06T14:15:14;21.90;50.80
22698;DHT22;11516;51.612;7.510;2022-07-06T14:17:40;22.50;51.20
22698;DHT22;11516;51.612;7.510;2022-07-06T14:20:06;23.10;49.40
22698;DHT22;11516;51.612;7.510;2022-07-06T14:22:32;22.70;49.10
22698;DHT22;11516;51.612;7.510;2022-07-06T14:24:58;22.60;50.40
22698;DHT22;11516;51.612;7.510;2022-07-06T14:27:24;22.80;49.80
22698;DHT22;11516;51.612;7.510;2022-07-06T14:29:49;22.10;50.90
22698;DHT22;11516;51.612;7.510;2022-07-06T14:32:15;22.10;51.40
22698;DHT22;11516;51.612;7.510;2022-07-06T14:34:41;22.20;51.50
22698;DHT22;11516;51.612;7.510;2022-07-06T14:37:07;22.10;52.10
22698;DHT22;11516;51.612;7.510;2022-07-06T14:39:33;22.00;52.00
22698;DHT22;11516;51.612;7.510;2022-07-06T14:41:59;22.10;51.90
22698;DHT22;11516;51.612;7.510;2022-07-06T14:44:24;21.90;52.10
22698;DHT22;11516;51.612;7.510;2022-07-06T14:46:50;21.80;53.10
22698;DHT22;11516;51.612;7.510;2022-07-06T14:49:15;22.00;52.60
22698;DHT22;11516;51.612;7.510;2022-07-06T14:51:41;22.00;53.00
22698;DHT22;11516;51.612;7.510;2022-07-06T14:54:06;22.20;52.50
22698;DHT22;11516;51.612;7.510;2022-07-06T14:56:32;22.00;52.00
22698;DHT22;11516;51.612;7.510;2022-07-06T14:58:57;21.90;52.40
22698;DHT22;11516;51.612;7.510;2022-07-06T15:01:23;22.00;52.00
22698;DHT22;11516;51.612;7.510;2022-07-06T15:03:48;22.10;51.40
22698;DHT22;11516;51.612;7.510;2022-07-06T15:06:14;22.10;51.80
22698;DHT22;11516;51.612;7.510;2022-07-06T15:08:39;22.20;51.90
22698;DHT22;11516;51.612;7.510;2022-07-06T15:11:05;22.20;51.80
22698;DHT22;11516;51.612;7.510;2022-07-06T15:13:31;22.30;52.00
22698;DHT22;11516;51.612;7.510;2022-07-06T15:15:56;22.30;51.10
22698;DHT22;11516;51.612;7.510;2022-07-06T15:18:22;21.90;51.30
22698;DHT22;11516;51.612;7.510;2022-07-06T15:20:47;22.10;51.50
22698;DHT22;11516;51.612;7.510;2022-07-06T15:23:13;21.90;52.70
22698;DHT22;11516;51.612;7.510;2022-07-06T15:25:38;21.90;52.50
22698;DHT22;11516;51.612;7.510;2022-07-06T15:28:04;22.00;52.10
22698;DHT22;11516;51.612;7.510;2022-07-06T15:30:30;22.10;52.70
22698;DHT22;11516;51.612;7.510;2022-07-06T15:32:58;21.90;52.50
22698;DHT22;11516;51.612;7.510;2022-07-06T15:35:23;22.10;51.90
22698;DHT22;11516;51.612;7.510;2022-07-06T15:37:49;22.00;51.50
22698;DHT22;11516;51.612;7.510;2022-07-06T15:40:14;21.90;52.00
22698;DHT22;11516;51.612;7.510;2022-07-06T15:42:42;22.00;52.40
22698;DHT22;11516;51.612;7.510;2022-07-06T15:45:08;22.50;51.80
22698;DHT22;11516;51.612;7.510;2022-07-06T15:47:34;22.70;49.60
22698;DHT22;11516;51.612;7.510;2022-07-06T15:49:59;22.60;50.70
22698;DHT22;11516;51.612;7.510;2022-07-06T15:52:25;22.90;50.20
22698;DHT22;11516;51.612;7.510;2022-07-06T15:54:51;22.90;49.90
22698;DHT22;11516;51.612;7.510;2022-07-06T15:57:17;23.10;50.10
22698;DHT22;11516;51.612;7.510;2022-07-06T15:59:42;23.30;49.30
22698;DHT22;11516;51.612;7.510;2022-07-06T16:02:08;23.40;48.70
22698;DHT22;11516;51.612;7.510;2022-07-06T16:04:34;23.10;49.40
22698;DHT22;11516;51.612;7.510;2022-07-06T16:06:59;22.70;50.20
22698;DHT22;11516;51.612;7.510;2022-07-06T16:09:25;22.70;50.50
22698;DHT22;11516;51.612;7.510;2022-07-06T16:11:50;22.50;50.90
22698;DHT22;11516;51.612;7.510;2022-07-06T16:14:16;22.40;51.10
22698;DHT22;11516;51.612;7.510;2022-07-06T16:16:41;22.40;51.30
22698;DHT22;11516;51.612;7.510;2022-07-06T16:19:07;22.50;50.90
22698;DHT22;11516;51.612;7.510;2022-07-06T16:21:33;22.50;50.20
22698;DHT22;11516;51.612;7.510;2022-07-06T16:23:59;22.50;50.90
22698;DHT22;11516;51.612;7.510;2022-07-06T16:26:25;22.50;50.20
22698;DHT22;11516;51.612;7.510;2022-07-06T16:28:50;22.60;50.70
22698;DHT22;11516;51.612;7.510;2022-07-06T16:31:16;22.50;51.00
22698;DHT22;11516;51.612;7.510;2022-07-06T16:33:42;22.40;50.50
22698;DHT22;11516;51.612;7.510;2022-07-06T16:36:09;22.40;50.60
22698;DHT22;11516;51.612;7.510;2022-07-06T16:38:37;22.60;50.10
22698;DHT22;11516;51.612;7.510;2022-07-06T16:41:04;22.40;50.40
22698;DHT22;11516;51.612;7.510;2022-07-06T16:43:29;22.50;50.40
22698;DHT22;11516;51.612;7.510;2022-07-06T16:45:55;22.40;50.50
22698;DHT22;11516;51.612;7.510;2022-07-06T16:48:21;22.30;51.00
22698;DHT22;11516;51.612;7.510;2022-07-06T16:50:46;22.30;51.40
22698;DHT22;11516;51.612;7.510;2022-07-06T16:53:12;22.30;51.30
22698;DHT22;11516;51.612;7.510;2022-07-06T16:55:37;22.30;51.60
22698;DHT22;11516;51.612;7.510;2022-07-06T16:58:03;22.30;51.30
22698;DHT22;11516;51.612;7.510;2022-07-06T17:00:28;22.20;51.00
22698;DHT22;11516;51.612;7.510;2022-07-06T17:02:55;22.40;51.00
22698;DHT22;11516;51.612;7.510;2022-07-06T17:05:23;22.30;51.00
22698;DHT22;11516;51.612;7.510;2022-07-06T17:07:51;22.20;51.30
22698;DHT22;11516;51.612;7.510;2022-07-06T17:10:17;21.90;51.40
22698;DHT22;11516;51.612;7.510;2022-07-06T17:12:43;21.80;52.00
22698;DHT22;11516;51.612;7.510;2022-07-06T17:15:10;21.90;52.40
22698;DHT22;11516;51.612;7.510;2022-07-06T17:17:36;21.90;52.00
22698;DHT22;11516;51.612;7.510;2022-07-06T17:20:02;22.00;52.50
22698;DHT22;11516;51.612;7.510;2022-07-06T17:22:28;22.00;52.40
22698;DHT22;11516;51.612;7.510;2022-07-06T17:24:53;21.80;53.10
22698;DHT22;11516;51.612;7.510;2022-07-06T17:27:19;21.60;53.50
22698;DHT22;11516;51.612;7.510;2022-07-06T17:29:44;21.40;53.60
22698;DHT22;11516;51.612;7.510;2022-07-06T17:32:10;21.30;54.10
22698;DHT22;11516;51.612;7.510;2022-07-06T17:34:36;21.30;54.90
22698;DHT22;11516;51.612;7.510;2022-07-06T17:37:01;21.30;55.00
22698;DHT22;11516;51.612;7.510;2022-07-06T17:39:27;21.20;55.10
22698;DHT22;11516;51.612;7.510;2022-07-06T17:41:53;21.20;55.70
22698;DHT22;11516;51.612;7.510;2022-07-06T17:44:18;21.20;55.40
22698;DHT22;11516;51.612;7.510;2022-07-06T17:46:44;21.30;55.70
22698;DHT22;11516;51.612;7.510;2022-07-06T17:49:09;21.10;55.70
22698;DHT22;11516;51.612;7.510;2022-07-06T17:51:35;21.20;55.80
22698;DHT22;11516;51.612;7.510;2022-07-06T17:54:01;21.10;55.90
22698;DHT22;11516;51.612;7.510;2022-07-06T17:56:27;21.20;56.20
22698;DHT22;11516;51.612;7.510;2022-07-06T17:58:53;21.20;55.90
22698;DHT22;11516;51.612;7.510;2022-07-06T18:01:19;21.10;56.10
22698;DHT22;11516;51.612;7.510;2022-07-06T18:03:44;21.00;56.50
22698;DHT22;11516;51.612;7.510;2022-07-06T18:06:10;20.90;56.60
22698;DHT22;11516;51.612;7.510;2022-07-06T18:08:36;20.90;57.10
22698;DHT22;11516;51.612;7.510;2022-07-06T18:11:04;21.00;56.70
22698;DHT22;11516;51.612;7.510;2022-07-06T18:13:29;21.10;56.70
22698;DHT22;11516;51.612;7.510;2022-07-06T18:15:56;21.00;56.90
22698;DHT22;11516;51.612;7.510;2022-07-06T18:18:22;20.90;57.10
22698;DHT22;11516;51.612;7.510;2022-07-06T18:20:50;20.80;57.30
22698;DHT22;11516;51.612;7.510;2022-07-06T18:23:18;20.70;57.50
22698;DHT22;11516;51.612;7.510;2022-07-06T18:25:44;20.70;57.40
22698;DHT22;11516;51.612;7.510;2022-07-06T18:28:10;20.80;57.60
22698;DHT22;11516;51.612;7.510;2022-07-06T18:30:46;20.70;58.40
22698;DHT22;11516;51.612;7.510;2022-07-06T18:33:12;20.70;58.20
22698;DHT22;11516;51.612;7.510;2022-07-06T18:35:37;20.60;59.30
22698;DHT22;11516;51.612;7.510;2022-07-06T18:38:04;20.60;60.30
22698;DHT22;11516;51.612;7.510;2022-07-06T18:40:30;20.60;59.40
22698;DHT22;11516;51.612;7.510;2022-07-06T18:42:56;20.60;59.20